Time;durP1;ratioP1;P1;durP2;ratioP2;P2;SDS_P1;SDS_P2;PMS_P1;PMS_P2;Temp;Humidity;BMP_temperature;BMP_pressure;BME280_temperature;BME280_humidity;BME280_pressure;Samples;Min_cycle;Max_cycle;Signal;HPM_P1;HPM_P2
2021/09/16 00:01:25;;;;;;;9.13;8.23;;;18.20;99.90;;;;;;5094885;28;20333;-55
2021/09/16 00:03:53;;;;;;;9.15;8.25;;;18.30;99.90;;;;;;5094850;28;20428;-56
2021/09/16 00:06:22;;;;;;;9.63;8.63;;;18.30;99.90;;;;;;5094092;28;20668;-56
2021/09/16 00:08:50;;;;;;;9.30;8.40;;;18.30;99.90;;;;;;5074353;28;20292;-56
2021/09/16 00:11:18;;;;;;;9.25;8.35;;;18.30;99.90;;;;;;5074322;28;20201;-52
2021/09/16 00:13:46;;;;;;;9.60;8.55;;;18.40;99.90;;;;;;5074207;28;20196;-55
2021/09/16 00:16:13;;;;;;;8.75;7.90;;;18.30;99.90;;;;;;5073079;28;20201;-56
2021/09/16 00:18:41;;;;;;;9.57;8.57;;;18.30;99.90;;;;;;5074013;28;20200;-56
2021/09/16 00:21:09;;;;;;;9.85;8.85;;;18.30;99.90;;;;;;5074157;28;20239;-57
2021/09/16 00:23:38;;;;;;;9.30;8.40;;;18.30;99.90;;;;;;5074326;28;20196;-54
2021/09/16 00:26:06;;;;;;;10.20;8.82;;;18.30;99.90;;;;;;5074096;28;20711;-56
2021/09/16 00:28:34;;;;;;;11.02;9.02;;;18.30;99.90;;;;;;5073990;28;20299;-56
2021/09/16 00:31:02;;;;;;;10.90;9.15;;;18.30;99.90;;;;;;5073555;28;20294;-54
2021/09/16 00:33:31;;;;;;;10.70;9.70;;;18.40;99.90;;;;;;5073794;28;20207;-55
2021/09/16 00:36:00;;;;;;;9.68;8.68;;;18.40;99.90;;;;;;5073772;28;20232;-55
2021/09/16 00:38:28;;;;;;;11.80;8.77;;;18.40;99.90;;;;;;5073430;28;20571;-55
2021/09/16 00:40:57;;;;;;;12.05;8.68;;;18.40;99.90;;;;;;5073588;28;20217;-55
2021/09/16 00:43:25;;;;;;;10.93;9.82;;;18.40;99.90;;;;;;5073700;28;20219;-55
2021/09/16 00:46:02;;;;;;;11.05;9.52;;;18.40;99.90;;;;;;5073628;28;20226;-55
2021/09/16 00:48:29;;;;;;;10.73;9.65;;;18.30;99.90;;;;;;5073936;28;20185;-56
2021/09/16 00:50:57;;;;;;;10.63;9.15;;;18.30;99.90;;;;;;5073659;28;20196;-55
2021/09/16 00:53:27;;;;;;;11.35;10.23;;;18.40;99.90;;;;;;5073398;28;20525;-56
2021/09/16 00:55:58;;;;;;;11.18;9.70;;;18.40;99.90;;;;;;5073067;28;20695;-53
2021/09/16 00:58:28;;;;;;;10.57;9.48;;;18.40;99.90;;;;;;5073339;28;20185;-55
2021/09/16 01:00:56;;;;;;;11.43;9.85;;;18.30;99.90;;;;;;5072864;28;20684;-55
2021/09/16 01:03:24;;;;;;;10.18;9.18;;;18.30;99.90;;;;;;5073136;28;20205;-55
2021/09/16 01:05:53;;;;;;;11.38;10.18;;;18.30;99.90;;;;;;5073305;28;20215;-55
2021/09/16 01:08:22;;;;;;;12.50;10.80;;;18.40;99.90;;;;;;5072871;28;20235;-53
2021/09/16 01:10:50;;;;;;;13.80;10.82;;;18.30;99.90;;;;;;5073211;28;20291;-54
2021/09/16 01:13:19;;;;;;;12.45;10.85;;;18.40;99.90;;;;;;5073194;28;20204;-56
2021/09/16 01:15:47;;;;;;;13.15;11.82;;;18.40;99.90;;;;;;5072871;28;20532;-57
2021/09/16 01:18:15;;;;;;;13.73;10.40;;;18.40;99.90;;;;;;5072744;28;20247;-55
2021/09/16 01:20:43;;;;;;;12.77;11.45;;;18.40;99.90;;;;;;5073068;28;20328;-56
2021/09/16 01:23:12;;;;;;;13.48;11.95;;;18.40;99.90;;;;;;5072768;28;20653;-57
2021/09/16 01:25:40;;;;;;;17.23;13.02;;;18.40;99.90;;;;;;5072896;28;20204;-55
2021/09/16 01:28:08;;;;;;;13.75;10.57;;;18.40;99.90;;;;;;5073077;28;20211;-57
2021/09/16 01:30:36;;;;;;;14.02;12.43;;;18.50;99.90;;;;;;5073046;28;20203;-55
2021/09/16 01:33:04;;;;;;;14.20;11.75;;;18.40;99.90;;;;;;5072860;28;20204;-56
2021/09/16 01:35:32;;;;;;;16.05;13.70;;;18.40;99.90;;;;;;5072939;28;20197;-55
2021/09/16 01:37:59;;;;;;;14.75;13.25;;;18.40;99.90;;;;;;5072618;28;20200;-56
2021/09/16 01:40:29;;;;;;;14.52;13.13;;;18.40;99.90;;;;;;5072620;28;20226;-54
2021/09/16 01:42:57;;;;;;;14.63;12.85;;;18.40;99.90;;;;;;5072888;28;20280;-57
2021/09/16 01:45:26;;;;;;;14.18;12.77;;;18.30;99.90;;;;;;5072821;28;20243;-56
2021/09/16 01:47:55;;;;;;;17.23;14.07;;;18.30;99.90;;;;;;5072747;28;20599;-55
2021/09/16 01:50:26;;;;;;;16.65;14.45;;;18.20;99.90;;;;;;5073028;28;20246;-57
2021/09/16 01:52:54;;;;;;;19.23;16.15;;;18.20;99.90;;;;;;5072907;28;20219;-51
2021/09/16 01:55:22;;;;;;;21.48;17.17;;;18.10;99.90;;;;;;5072433;28;20294;-55
2021/09/16 01:57:52;;;;;;;20.42;16.35;;;18.10;99.90;;;;;;5072625;28;20288;-56
2021/09/16 02:00:20;;;;;;;20.10;16.02;;;18.00;99.90;;;;;;5072609;28;20299;-54
2021/09/16 02:02:48;;;;;;;18.58;15.27;;;18.00;99.90;;;;;;5072442;28;20205;-55
2021/09/16 02:05:16;;;;;;;22.20;17.50;;;17.90;99.90;;;;;;5072405;28;20912;-54
2021/09/16 02:07:43;;;;;;;18.88;15.40;;;17.90;99.90;;;;;;5072189;28;20328;-56
2021/09/16 02:10:11;;;;;;;24.73;18.95;;;17.90;99.90;;;;;;5072602;28;20236;-54
2021/09/16 02:12:39;;;;;;;21.08;18.35;;;17.90;99.90;;;;;;5072711;28;20200;-55
2021/09/16 02:15:09;;;;;;;21.73;17.88;;;17.90;99.90;;;;;;5072563;28;20197;-55
2021/09/16 02:17:37;;;;;;;23.48;18.10;;;17.90;99.90;;;;;;5072403;28;20201;-54
2021/09/16 02:20:06;;;;;;;23.40;19.50;;;17.90;99.90;;;;;;5072549;28;20200;-55
2021/09/16 02:22:34;;;;;;;21.75;18.48;;;18.00;99.90;;;;;;5072373;28;20307;-56
2021/09/16 02:25:02;;;;;;;26.45;21.40;;;17.90;99.90;;;;;;5072358;28;20242;-55
2021/09/16 02:27:30;;;;;;;27.15;19.77;;;18.00;99.90;;;;;;5072430;28;20558;-57
2021/09/16 02:29:58;;;;;;;24.63;20.33;;;18.00;99.90;;;;;;5072273;28;20258;-58
2021/09/16 02:32:27;;;;;;;29.90;22.38;;;17.90;99.90;;;;;;5072439;28;20203;-53
2021/09/16 02:34:55;;;;;;;25.15;21.08;;;17.90;99.90;;;;;;5072335;28;20231;-55
2021/09/16 02:37:23;;;;;;;29.70;22.60;;;17.90;99.90;;;;;;5072469;28;20296;-54
2021/09/16 02:39:51;;;;;;;31.80;23.52;;;17.90;99.90;;;;;;5076090;28;20307;-57
2021/09/16 02:42:19;;;;;;;30.73;23.45;;;17.90;99.90;;;;;;5076079;28;20223;-55
2021/09/16 02:44:47;;;;;;;32.63;25.35;;;17.80;99.90;;;;;;5076102;28;20200;-55
2021/09/16 02:47:15;;;;;;;32.58;23.92;;;17.80;99.90;;;;;;5075836;28;20200;-57
2021/09/16 02:49:44;;;;;;;33.55;23.48;;;17.80;99.90;;;;;;5075698;28;20222;-56
2021/09/16 02:52:12;;;;;;;34.00;25.55;;;17.70;99.90;;;;;;5076085;28;20199;-54
2021/09/16 02:54:39;;;;;;;33.53;25.85;;;17.70;99.90;;;;;;5075858;28;20300;-55
2021/09/16 02:57:07;;;;;;;34.15;26.52;;;17.70;99.90;;;;;;5075807;28;20197;-54
2021/09/16 02:59:35;;;;;;;32.83;24.63;;;17.70;99.90;;;;;;5075902;28;20197;-55
2021/09/16 03:02:03;;;;;;;33.10;24.05;;;17.70;99.90;;;;;;5075758;28;20219;-55
2021/09/16 03:04:31;;;;;;;33.28;24.90;;;17.60;99.90;;;;;;5075806;28;20197;-54
2021/09/16 03:07:01;;;;;;;35.30;25.92;;;17.60;99.90;;;;;;5075508;28;20229;-53
2021/09/16 03:09:28;;;;;;;31.98;24.60;;;17.60;99.90;;;;;;5075411;28;20544;-56
2021/09/16 03:11:56;;;;;;;34.63;26.15;;;17.60;99.90;;;;;;5075706;28;20197;-53
2021/09/16 03:14:24;;;;;;;37.53;26.55;;;17.60;99.90;;;;;;5075505;28;20203;-54
2021/09/16 03:16:52;;;;;;;36.70;26.10;;;17.60;99.90;;;;;;5067110;28;20196;-56
2021/09/16 03:19:20;;;;;;;39.45;27.40;;;17.60;99.90;;;;;;5075493;28;20297;-57
2021/09/16 03:21:47;;;;;;;39.13;25.65;;;17.60;99.90;;;;;;5075034;28;20627;-54
2021/09/16 03:24:17;;;;;;;35.75;26.05;;;17.60;99.90;;;;;;5075148;28;20214;-56
2021/09/16 03:26:44;;;;;;;38.78;28.38;;;17.60;99.90;;;;;;5075182;28;20293;-52
2021/09/16 03:29:12;;;;;;;39.00;27.55;;;17.60;99.90;;;;;;5075333;28;20205;-52
2021/09/16 03:31:40;;;;;;;36.42;26.35;;;17.60;99.90;;;;;;5075195;28;20244;-54
2021/09/16 03:34:08;;;;;;;37.42;26.88;;;17.60;99.90;;;;;;5074893;28;20211;-53
2021/09/16 03:36:36;;;;;;;32.28;24.63;;;17.60;99.90;;;;;;5074813;28;20196;-55
2021/09/16 03:39:04;;;;;;;34.50;25.30;;;17.60;99.90;;;;;;5075065;28;20247;-56
2021/09/16 03:41:33;;;;;;;29.92;22.70;;;17.60;99.90;;;;;;5075015;28;20221;-55
2021/09/16 03:44:01;;;;;;;35.45;26.25;;;17.60;99.90;;;;;;5075067;28;20201;-57
2021/09/16 03:46:29;;;;;;;34.90;27.02;;;17.60;99.90;;;;;;5074881;28;20303;-55
2021/09/16 03:48:57;;;;;;;37.03;27.17;;;17.60;99.90;;;;;;5074946;28;20297;-55
2021/09/16 03:51:26;;;;;;;33.70;24.45;;;17.60;99.90;;;;;;5074907;28;20259;-55
2021/09/16 03:53:54;;;;;;;36.05;25.73;;;17.50;99.90;;;;;;5074619;28;20668;-56
2021/09/16 03:56:22;;;;;;;36.25;25.95;;;17.50;99.90;;;;;;5074450;28;20642;-55
2021/09/16 03:58:51;;;;;;;32.17;24.35;;;17.60;99.90;;;;;;5074697;28;20197;-54
2021/09/16 04:01:19;;;;;;;34.78;26.20;;;17.60;99.90;;;;;;5074321;28;20723;-52
2021/09/16 04:03:47;;;;;;;33.00;24.38;;;17.50;99.90;;;;;;5074607;28;20320;-54
2021/09/16 04:06:15;;;;;;;33.45;26.00;;;17.50;99.90;;;;;;5074588;28;20203;-55
2021/09/16 04:08:43;;;;;;;34.30;25.85;;;17.60;99.90;;;;;;5074026;28;20278;-57
2021/09/16 04:11:10;;;;;;;29.63;24.15;;;17.50;99.90;;;;;;5074845;28;20232;-56
2021/09/16 04:13:38;;;;;;;29.70;23.98;;;17.50;99.90;;;;;;5074327;28;20208;-55
2021/09/16 04:16:07;;;;;;;30.60;24.75;;;17.50;99.90;;;;;;5074350;28;20292;-55
2021/09/16 04:18:35;;;;;;;32.05;25.30;;;17.50;99.90;;;;;;5073917;28;20657;-55
2021/09/16 04:21:03;;;;;;;30.90;23.35;;;17.50;99.90;;;;;;5074203;28;20536;-52
2021/09/16 04:23:31;;;;;;;30.45;25.55;;;17.50;99.90;;;;;;5073925;28;20223;-55
2021/09/16 04:25:59;;;;;;;33.92;25.80;;;17.40;99.90;;;;;;5073979;28;20197;-55
2021/09/16 04:28:27;;;;;;;34.90;26.65;;;17.50;99.90;;;;;;5073908;28;20224;-54
2021/09/16 04:30:54;;;;;;;33.58;25.05;;;17.40;99.90;;;;;;5073899;28;20716;-57
2021/09/16 04:33:24;;;;;;;30.98;24.13;;;17.40;99.90;;;;;;5073780;28;20291;-57
2021/09/16 04:35:51;;;;;;;32.53;24.15;;;17.40;99.90;;;;;;5073869;28;20215;-54
2021/09/16 04:38:19;;;;;;;29.35;23.58;;;17.40;99.90;;;;;;5073734;28;20574;-57
2021/09/16 04:40:47;;;;;;;28.88;23.42;;;17.30;99.90;;;;;;5073522;28;20520;-52
2021/09/16 04:43:15;;;;;;;28.15;22.50;;;17.30;99.90;;;;;;5073449;28;20212;-56
2021/09/16 04:45:43;;;;;;;21.63;18.27;;;17.30;99.90;;;;;;5073859;28;20201;-55
2021/09/16 04:48:11;;;;;;;23.20;18.70;;;17.30;99.90;;;;;;5073275;28;20291;-55
2021/09/16 04:50:40;;;;;;;16.75;14.38;;;17.20;99.90;;;;;;5073504;28;20212;-55
2021/09/16 04:53:08;;;;;;;17.83;13.30;;;17.10;99.90;;;;;;5073228;28;20196;-55
2021/09/16 04:55:35;;;;;;;18.90;14.77;;;17.10;99.90;;;;;;5073171;28;20225;-56
2021/09/16 04:58:03;;;;;;;15.68;13.25;;;17.00;99.90;;;;;;5072892;28;20204;-52
2021/09/16 05:00:31;;;;;;;20.05;16.00;;;16.90;99.90;;;;;;5072853;28;20249;-52
2021/09/16 05:02:59;;;;;;;21.92;16.00;;;16.90;99.90;;;;;;5073011;28;20228;-54
2021/09/16 05:05:27;;;;;;;21.38;16.02;;;16.80;99.90;;;;;;5073514;28;20196;-54
2021/09/16 05:07:56;;;;;;;22.08;16.35;;;16.80;99.90;;;;;;5072815;28;20259;-54
2021/09/16 05:10:24;;;;;;;21.25;15.35;;;16.80;99.90;;;;;;5073231;28;20200;-55
2021/09/16 05:12:52;;;;;;;19.08;15.40;;;16.80;99.90;;;;;;5073256;28;20208;-56
2021/09/16 05:15:20;;;;;;;20.50;15.30;;;16.80;99.90;;;;;;5072809;28;20652;-56
2021/09/16 05:17:48;;;;;;;17.27;13.80;;;16.80;99.90;;;;;;5072971;28;20207;-56
2021/09/16 05:20:19;;;;;;;16.33;13.90;;;16.70;99.90;;;;;;5072474;28;20318;-54
2021/09/16 05:22:47;;;;;;;18.98;14.13;;;16.70;99.90;;;;;;5072288;28;20307;-54
2021/09/16 05:25:17;;;;;;;18.30;14.00;;;16.70;99.90;;;;;;5069493;28;20196;-54
2021/09/16 05:27:44;;;;;;;16.52;13.60;;;16.80;99.90;;;;;;5072520;28;20787;-55
2021/09/16 05:30:15;;;;;;;15.27;13.35;;;;;;;;;;5072034;28;20250;-55
2021/09/16 05:32:43;;;;;;;15.02;12.85;;;16.80;99.90;;;;;;5072252;28;20204;-55
2021/09/16 05:35:11;;;;;;;13.63;11.75;;;16.80;99.90;;;;;;5068017;28;20284;-53
2021/09/16 05:37:40;;;;;;;16.65;13.02;;;16.80;99.90;;;;;;5063572;28;20197;-55
2021/09/16 05:40:10;;;;;;;13.68;11.57;;;16.80;99.90;;;;;;5068940;28;20194;-54
2021/09/16 05:42:39;;;;;;;13.88;11.75;;;16.80;99.90;;;;;;5050526;28;20231;-54
2021/09/16 05:45:08;;;;;;;14.32;12.15;;;16.80;99.90;;;;;;5064865;28;20619;-56
2021/09/16 05:47:36;;;;;;;13.98;12.02;;;16.80;99.90;;;;;;5072739;28;20200;-55
2021/09/16 05:50:05;;;;;;;15.77;12.50;;;16.80;99.90;;;;;;5072417;28;20243;-56
2021/09/16 05:52:33;;;;;;;13.90;11.73;;;16.80;99.90;;;;;;5072367;28;20209;-55
2021/09/16 05:55:00;;;;;;;13.93;11.95;;;16.80;99.90;;;;;;5072096;28;20601;-52
2021/09/16 05:57:28;;;;;;;14.50;12.05;;;16.80;99.90;;;;;;5072425;28;20197;-56
2021/09/16 05:59:58;;;;;;;13.80;11.25;;;16.80;99.90;;;;;;5071995;28;20526;-55
2021/09/16 06:02:26;;;;;;;14.70;12.25;;;16.80;99.90;;;;;;5072499;28;20207;-55
2021/09/16 06:04:53;;;;;;;15.10;11.85;;;16.90;99.90;;;;;;5072416;28;20316;-54
2021/09/16 06:07:21;;;;;;;13.88;11.65;;;16.90;99.90;;;;;;5072032;28;20232;-53
2021/09/16 06:09:49;;;;;;;14.32;12.05;;;16.90;99.90;;;;;;5072578;28;20213;-55
2021/09/16 06:12:17;;;;;;;14.40;12.15;;;16.90;99.90;;;;;;5072601;28;20295;-54
2021/09/16 06:14:45;;;;;;;15.23;12.57;;;16.90;99.90;;;;;;5076248;28;20636;-57
2021/09/16 06:17:14;;;;;;;14.65;12.48;;;17.00;99.90;;;;;;5076524;28;20585;-54
2021/09/16 06:19:41;;;;;;;16.65;12.48;;;17.00;99.90;;;;;;5076608;28;20714;-55
2021/09/16 06:22:09;;;;;;;17.70;13.25;;;17.00;99.90;;;;;;5076572;28;20291;-55
2021/09/16 06:24:37;;;;;;;15.65;12.90;;;17.00;99.90;;;;;;5076313;28;20231;-55
2021/09/16 06:27:05;;;;;;;16.40;13.93;;;17.00;99.90;;;;;;5076482;28;20201;-55
2021/09/16 06:29:33;;;;;;;13.43;12.02;;;17.10;99.90;;;;;;5076397;28;20201;-53
2021/09/16 06:32:01;;;;;;;16.00;13.07;;;17.10;99.90;;;;;;5076174;28;20653;-53
2021/09/16 06:34:30;;;;;;;14.70;12.70;;;17.10;99.90;;;;;;5076163;28;20710;-55
2021/09/16 06:36:58;;;;;;;15.20;12.98;;;17.20;99.90;;;;;;5076043;28;20323;-54
2021/09/16 06:39:26;;;;;;;13.77;12.27;;;17.30;99.90;;;;;;5076226;28;20197;-54
2021/09/16 06:41:54;;;;;;;15.32;11.48;;;17.30;99.90;;;;;;5076154;28;20308;-56
2021/09/16 06:44:22;;;;;;;18.40;14.02;;;17.40;99.90;;;;;;5076100;28;20572;-55
2021/09/16 06:46:50;;;;;;;16.30;13.40;;;17.40;99.90;;;;;;5075891;28;20287;-54
2021/09/16 06:49:18;;;;;;;18.98;12.57;;;17.40;99.90;;;;;;5076001;28;20204;-55
2021/09/16 06:51:47;;;;;;;16.13;13.57;;;17.40;99.90;;;;;;5075693;28;20707;-54
2021/09/16 06:54:15;;;;;;;16.15;13.75;;;17.40;99.90;;;;;;5076028;28;20197;-55
2021/09/16 06:56:42;;;;;;;15.80;13.68;;;17.40;99.90;;;;;;5075840;28;20212;-54
2021/09/16 06:59:10;;;;;;;15.23;12.27;;;17.50;99.90;;;;;;5076040;28;20239;-54
2021/09/16 07:01:38;;;;;;;14.82;12.75;;;17.50;99.90;;;;;;5075853;28;20197;-53
2021/09/16 07:04:06;;;;;;;13.57;12.07;;;17.50;99.90;;;;;;5075826;28;20342;-54
2021/09/16 07:06:36;;;;;;;13.02;11.73;;;17.50;99.90;;;;;;5075384;28;20295;-54
2021/09/16 07:09:05;;;;;;;13.90;12.32;;;17.50;99.90;;;;;;5074342;28;20228;-55
2021/09/16 07:11:33;;;;;;;13.30;11.90;;;17.60;99.90;;;;;;5074013;28;20223;-55
2021/09/16 07:14:01;;;;;;;15.30;11.20;;;17.60;99.90;;;;;;5074512;28;20292;-53
2021/09/16 07:16:29;;;;;;;11.73;10.52;;;17.70;99.90;;;;;;5074371;28;20201;-53
2021/09/16 07:18:57;;;;;;;13.55;10.85;;;17.70;99.90;;;;;;5073849;28;20680;-54
2021/09/16 07:21:25;;;;;;;10.95;9.82;;;17.70;99.90;;;;;;5074230;28;20203;-55
2021/09/16 07:23:53;;;;;;;11.32;9.38;;;17.70;99.90;;;;;;5073520;28;20235;-56
2021/09/16 07:26:25;;;;;;;12.43;11.13;;;17.80;99.90;;;;;;5073855;28;20189;-55
2021/09/16 07:28:58;;;;;;;12.35;11.00;;;17.80;99.90;;;;;;5074016;28;20643;-58
2021/09/16 07:31:26;;;;;;;11.75;10.57;;;17.90;99.90;;;;;;5066581;28;20200;-59
2021/09/16 07:33:54;;;;;;;12.95;11.48;;;18.00;99.90;;;;;;5070835;28;20208;-60
2021/09/16 07:36:22;;;;;;;11.60;10.35;;;18.10;99.90;;;;;;5059861;28;20638;-59
2021/09/16 07:38:50;;;;;;;12.63;11.18;;;18.20;99.90;;;;;;5069792;28;20652;-58
2021/09/16 07:41:18;;;;;;;11.63;10.43;;;18.30;99.90;;;;;;5070847;28;20227;-59
2021/09/16 07:43:47;;;;;;;11.05;9.45;;;18.30;99.90;;;;;;5070610;28;20247;-59
2021/09/16 07:46:15;;;;;;;11.57;9.13;;;18.30;99.90;;;;;;5070899;28;20375;-56
2021/09/16 07:48:44;;;;;;;10.45;8.82;;;18.40;99.90;;;;;;5070432;28;20258;-55
2021/09/16 07:51:12;;;;;;;11.82;8.73;;;18.50;99.90;;;;;;5070660;28;20236;-55
2021/09/16 07:53:40;;;;;;;10.23;8.65;;;18.60;99.90;;;;;;5070667;28;20297;-56
2021/09/16 07:56:07;;;;;;;8.07;7.15;;;18.70;99.90;;;;;;5070616;28;20211;-57
2021/09/16 07:58:35;;;;;;;8.80;7.30;;;18.90;99.90;;;;;;5070870;28;20200;-57
2021/09/16 08:01:05;;;;;;;8.73;7.55;;;19.10;99.90;;;;;;5070816;28;20200;-55
2021/09/16 08:03:33;;;;;;;10.35;8.65;;;19.20;99.90;;;;;;5070294;28;20228;-57
2021/09/16 08:06:01;;;;;;;9.60;8.60;;;19.20;99.90;;;;;;5070088;28;20260;-55
2021/09/16 08:08:29;;;;;;;9.82;8.80;;;19.20;99.90;;;;;;5034357;28;1048802;-52
2021/09/16 08:10:58;;;;;;;9.88;8.88;;;19.10;99.90;;;;;;5071739;28;20205;-59
2021/09/16 08:13:26;;;;;;;12.75;9.00;;;19.20;99.90;;;;;;5071110;28;20292;-58
2021/09/16 08:15:55;;;;;;;11.40;9.07;;;19.30;99.90;;;;;;5071538;28;20201;-59
2021/09/16 08:18:24;;;;;;;9.30;8.40;;;19.40;99.90;;;;;;5071337;28;20226;-57
2021/09/16 08:20:53;;;;;;;10.57;8.25;;;19.40;99.90;;;;;;5072093;28;20283;-58
2021/09/16 08:23:22;;;;;;;9.10;8.02;;;19.40;99.90;;;;;;5071152;28;20204;-58
2021/09/16 08:25:51;;;;;;;7.47;6.75;;;19.30;99.90;;;;;;5071144;28;20676;-56
2021/09/16 08:28:19;;;;;;;8.73;7.82;;;19.40;99.90;;;;;;5071226;28;20227;-56
2021/09/16 08:30:47;;;;;;;8.40;7.03;;;19.50;99.90;;;;;;5071307;28;20201;-61
2021/09/16 08:33:16;;;;;;;8.13;7.18;;;19.50;99.90;;;;;;5070986;28;20200;-60
2021/09/16 08:35:45;;;;;;;8.27;7.53;;;19.50;99.90;;;;;;5070010;28;20304;-64
2021/09/16 08:38:14;;;;;;;6.88;6.25;;;19.60;99.90;;;;;;5070852;28;20291;-56
2021/09/16 08:40:42;;;;;;;7.97;7.18;;;19.60;99.90;;;;;;5070711;28;20208;-58
2021/09/16 08:43:13;;;;;;;7.07;6.38;;;19.50;99.90;;;;;;5070794;28;20192;-53
2021/09/16 08:45:41;;;;;;;7.10;6.40;;;19.40;99.90;;;;;;5070064;28;20225;-52
2021/09/16 08:48:09;;;;;;;6.75;5.88;;;19.20;99.90;;;;;;5070344;28;20204;-52
2021/09/16 08:50:37;;;;;;;6.30;5.70;;;19.10;99.90;;;;;;5070412;28;20296;-59
2021/09/16 08:53:07;;;;;;;6.63;4.90;;;18.90;99.90;;;;;;5070089;28;20204;-56
2021/09/16 08:55:35;;;;;;;5.78;5.20;;;18.80;99.90;;;;;;5070123;28;20288;-55
2021/09/16 08:58:04;;;;;;;5.72;4.97;;;18.70;99.90;;;;;;5069924;28;20667;-55
2021/09/16 09:00:33;;;;;;;5.65;5.10;;;18.60;99.90;;;;;;5069787;28;20229;-56
2021/09/16 09:03:01;;;;;;;5.40;4.95;;;18.60;99.90;;;;;;5069821;28;20767;-55
2021/09/16 09:05:30;;;;;;;5.22;4.72;;;18.40;99.90;;;;;;5069833;28;20220;-55
2021/09/16 09:08:00;;;;;;;5.30;4.63;;;18.40;99.90;;;;;;5069833;28;20646;-55
2021/09/16 09:10:42;;;;;;;4.93;4.50;;;18.30;99.90;;;;;;5069802;28;20577;-59
2021/09/16 09:13:13;;;;;;;5.00;4.50;;;18.20;99.90;;;;;;5069632;28;20218;-61
2021/09/16 09:15:42;;;;;;;6.20;4.93;;;18.10;99.90;;;;;;5070013;28;20181;-62
2021/09/16 09:18:12;;;;;;;5.53;4.55;;;18.00;99.90;;;;;;5069573;28;20660;-61
2021/09/16 09:20:59;;;;;;;5.28;4.57;;;18.10;99.90;;;;;;5070046;28;20193;-60
2021/09/16 09:23:30;;;;;;;5.78;4.53;;;18.10;99.90;;;;;;5069388;28;20191;-51
2021/09/16 09:26:01;;;;;;;4.63;3.65;;;18.20;99.90;;;;;;5070138;28;20236;-53
2021/09/16 09:28:32;;;;;;;5.68;3.70;;;18.30;99.90;;;;;;5069495;28;20874;-58
2021/09/16 09:31:12;;;;;;;4.93;3.67;;;18.60;99.90;;;;;;5069867;28;20188;-57
2021/09/16 09:33:40;;;;;;;3.42;3.10;;;19.00;99.90;;;;;;5068583;28;20207;-58
2021/09/16 09:36:12;;;;;;;4.05;3.10;;;19.20;99.90;;;;;;5069763;28;20538;-57
2021/09/16 09:38:51;;;;;;;3.95;3.42;;;19.20;99.90;;;;;;5069240;28;20204;-55
2021/09/16 09:41:30;;;;;;;3.85;3.05;;;19.30;99.90;;;;;;5069689;28;20567;-57
2021/09/16 09:44:04;;;;;;;5.53;3.80;;;19.60;99.90;;;;;;5069464;28;20189;-67
2021/09/16 09:46:42;;;;;;;3.95;3.55;;;19.70;99.90;;;;;;5069116;28;20310;-61
2021/09/16 09:49:11;;;;;;;3.55;3.25;;;20.00;99.90;;;;;;5069365;28;20181;-61
2021/09/16 09:51:41;;;;;;;4.38;3.72;;;20.10;99.90;;;;;;5069417;28;20196;-61
2021/09/16 09:54:18;;;;;;;3.83;3.17;;;20.30;99.90;;;;;;5069312;28;20236;-61
2021/09/16 09:57:12;;;;;;;4.68;3.60;;;20.20;99.90;;;;;;5069201;28;20185;-61
2021/09/16 09:59:54;;;;;;;3.47;3.13;;;20.30;99.90;;;;;;5069163;28;20181;-59
2021/09/16 10:02:24;;;;;;;4.22;3.83;;;20.20;99.90;;;;;;5069215;28;20623;-58
2021/09/16 10:04:53;;;;;;;5.00;3.78;;;20.30;99.90;;;;;;5069080;28;20593;-58
2021/09/16 10:07:30;;;;;;;4.45;4.05;;;20.30;99.90;;;;;;5069132;28;20259;-54
2021/09/16 10:10:01;;;;;;;4.78;4.10;;;20.30;99.90;;;;;;5068984;28;20535;-55
2021/09/16 10:12:30;;;;;;;4.85;4.10;;;20.40;99.90;;;;;;5068927;28;20327;-58
2021/09/16 10:15:07;;;;;;;5.93;3.90;;;20.50;99.90;;;;;;5069511;28;20187;-60
2021/09/16 10:17:35;;;;;;;4.25;3.85;;;20.40;99.90;;;;;;5068350;28;20273;-60
2021/09/16 10:20:06;;;;;;;6.75;4.30;;;20.40;99.90;;;;;;5068983;28;20745;-58
2021/09/16 10:22:35;;;;;;;4.80;3.53;;;20.40;99.90;;;;;;5068947;28;20625;-55
2021/09/16 10:25:05;;;;;;;4.32;3.20;;;20.30;99.90;;;;;;5068766;28;20200;-55
2021/09/16 10:27:37;;;;;;;4.32;3.85;;;20.50;99.90;;;;;;5069110;28;20195;-58
2021/09/16 10:30:29;;;;;;;4.22;3.83;;;20.40;99.90;;;;;;5068658;28;20546;-57
2021/09/16 10:33:03;;;;;;;4.55;4.03;;;20.50;99.90;;;;;;5068768;28;20211;-52
2021/09/16 10:35:32;;;;;;;5.45;3.40;;;20.50;99.90;;;;;;5069143;28;20181;-56
2021/09/16 10:38:25;;;;;;;5.90;3.45;;;20.60;99.90;;;;;;5068894;28;20208;-53
2021/09/16 10:41:11;;;;;;;5.00;3.17;;;20.50;99.90;;;;;;5069019;28;20185;-51
2021/09/16 10:43:42;;;;;;;3.72;2.67;;;20.50;99.90;;;;;;5068448;28;20291;-53
2021/09/16 10:46:35;;;;;;;3.88;2.90;;;20.60;99.90;;;;;;5057750;28;20241;-52
2021/09/16 10:49:31;;;;;;;4.60;2.80;;;20.50;99.90;;;;;;5061661;28;20287;-54
2021/09/16 10:52:01;;;;;;;4.65;3.45;;;20.50;99.90;;;;;;5065527;28;20660;-51
2021/09/16 10:54:37;;;;;;;3.25;2.80;;;20.50;99.90;;;;;;5068746;28;20243;-53
2021/09/16 10:57:08;;;;;;;4.30;3.33;;;20.30;99.90;;;;;;5068618;28;20221;-51
2021/09/16 11:00:21;;;;;;;4.95;3.30;;;20.10;99.90;;;;;;5070270;28;20216;-51
2021/09/16 11:03:12;;;;;;;5.72;2.92;;;20.10;99.90;;;;;;5072083;28;20279;-49
2021/09/16 11:05:55;;;;;;;3.65;2.63;;;20.00;99.90;;;;;;5072249;28;20243;-51
2021/09/16 11:08:44;;;;;;;3.38;3.00;;;19.90;99.90;;;;;;5071779;28;20235;-52
2021/09/16 11:11:12;;;;;;;6.40;3.40;;;19.80;99.90;;;;;;5071609;28;20240;-49
2021/09/16 11:13:53;;;;;;;3.55;2.65;;;19.80;99.90;;;;;;5071915;28;20232;-51
2021/09/16 11:16:28;;;;;;;3.05;2.70;;;19.80;99.90;;;;;;5071694;28;20195;-53
2021/09/16 11:19:05;;;;;;;3.22;2.92;;;19.90;99.90;;;;;;5069991;28;20535;-55
2021/09/16 11:21:34;;;;;;;5.13;2.70;;;20.10;99.90;;;;;;5070292;28;20276;-49
2021/09/16 11:24:07;;;;;;;5.05;3.03;;;19.90;99.90;;;;;;5071186;28;20682;-49
2021/09/16 11:26:35;;;;;;;3.97;2.92;;;20.00;99.90;;;;;;5071515;28;20672;-54
2021/09/16 11:29:08;;;;;;;5.75;2.60;;;20.00;99.90;;;;;;5071655;28;20291;-54
2021/09/16 11:31:36;;;;;;;3.80;2.60;;;20.10;99.90;;;;;;5071942;28;20185;-52
2021/09/16 11:34:15;;;;;;;4.20;3.20;;;20.30;99.90;;;;;;5071076;28;20220;-51
2021/09/16 11:37:16;;;;;;;3.55;2.78;;;20.40;99.90;;;;;;5071029;28;20188;-52
2021/09/16 11:39:44;;;;;;;4.38;3.00;;;20.40;99.90;;;;;;5062414;28;20681;-52
2021/09/16 11:42:15;;;;;;;3.90;3.20;;;20.60;99.90;;;;;;5051529;28;20224;-53
2021/09/16 11:45:17;;;;;;;4.57;3.53;;;20.60;99.90;;;;;;5051221;28;20193;-53
2021/09/16 11:47:48;;;;;;;4.45;3.70;;;20.30;99.90;;;;;;4950511;29;20578;-53
2021/09/16 11:50:29;;;;;;;4.18;3.78;;;20.10;99.90;;;;;;4969296;28;20264;-52
2021/09/16 11:53:00;;;;;;;3.80;3.35;;;20.00;99.90;;;;;;5008692;28;20205;-52
2021/09/16 11:55:30;;;;;;;4.05;3.50;;;19.80;99.90;;;;;;5051173;28;20292;-56
2021/09/16 11:58:01;;;;;;;4.68;3.95;;;19.90;99.90;;;;;;5050941;28;20292;-53
2021/09/16 12:00:32;;;;;;;3.80;3.35;;;19.90;99.90;;;;;;5050387;28;20185;-56
2021/09/16 12:03:03;;;;;;;4.63;3.63;;;20.00;99.90;;;;;;5051116;28;20190;-50
2021/09/16 12:05:44;;;;;;;4.45;3.40;;;20.00;99.90;;;;;;5050960;28;20288;-67
2021/09/16 12:08:22;;;;;;;4.65;3.53;;;20.00;99.90;;;;;;5050706;28;20666;-62
2021/09/16 12:10:54;;;;;;;3.65;3.33;;;20.10;99.90;;;;;;5049609;28;20269;-62
2021/09/16 12:13:25;;;;;;;3.30;3.00;;;20.00;99.90;;;;;;5050757;28;20186;-61
2021/09/16 12:16:02;;;;;;;4.28;2.85;;;20.00;99.90;;;;;;5050997;28;20186;-61
2021/09/16 12:18:31;;;;;;;4.03;2.60;;;19.90;99.90;;;;;;5050397;28;20189;-62
2021/09/16 12:21:00;;;;;;;3.67;2.65;;;19.80;99.90;;;;;;5050947;28;20197;-59
2021/09/16 12:23:28;;;;;;;3.60;2.30;;;19.80;99.90;;;;;;5053633;28;20205;-71
2021/09/16 12:25:59;;;;;;;3.10;2.53;;;19.90;99.90;;;;;;5053378;28;20211;-72
2021/09/16 12:28:28;;;;;;;2.92;2.35;;;20.00;99.90;;;;;;5053681;28;20292;-72
2021/09/16 12:31:05;;;;;;;2.58;1.90;;;20.10;99.90;;;;;;5054400;28;20198;-70
2021/09/16 12:33:38;;;;;;;2.78;1.70;;;20.10;99.90;;;;;;5052950;28;20699;-71
2021/09/16 12:36:17;;;;;;;1.70;1.60;;;20.10;99.90;;;;;;5053746;28;20201;-71
2021/09/16 12:38:47;;;;;;;4.13;1.70;;;20.00;99.90;;;;;;5054276;28;20187;-73
2021/09/16 12:41:31;;;;;;;2.28;1.58;;;20.10;99.90;;;;;;5053548;28;20548;-72
2021/09/16 12:44:08;;;;;;;2.97;1.48;;;20.20;99.90;;;;;;5054039;28;20217;-72
2021/09/16 12:46:40;;;;;;;2.83;1.40;;;20.50;99.90;;;;;;5053550;28;20296;-73
2021/09/16 12:49:08;;;;;;;2.00;1.20;;;20.60;99.90;;;;;;5053734;28;20209;-72
2021/09/16 12:51:37;;;;;;;1.60;1.20;;;20.60;99.90;;;;;;5053466;28;20300;-72